Time;durP1;ratioP1;P1;durP2;ratioP2;P2;SDS_P1;SDS_P2;PMS_P1;PMS_P2;Temp;Humidity;BMP_temperature;BMP_pressure;BME280_temperature;BME280_humidity;BME280_pressure;Samples;Min_cycle;Max_cycle;Signal;HPM_P1;HPM_P2
2023/05/28 00:00:07;;;;;;;29.25;6.82;;;;;;;-143.48;93.56;118439.88;5017270;28;20046;-74
2023/05/28 00:02:33;;;;;;;27.65;6.80;;;;;;;-143.48;93.92;118439.88;5016451;28;20021;-73
2023/05/28 00:04:59;;;;;;;20.98;6.72;;;;;;;-143.48;93.52;118439.88;5016820;28;20025;-74
2023/05/28 00:07:24;;;;;;;17.95;6.60;;;;;;;-143.48;94.30;118439.88;5017251;28;20049;-74
2023/05/28 00:09:50;;;;;;;29.15;6.57;;;;;;;-143.48;94.11;118439.88;5034914;28;20025;-74
2023/05/28 00:12:15;;;;;;;25.02;7.10;;;;;;;-143.48;95.25;118439.88;5035121;28;20513;-74
2023/05/28 00:14:41;;;;;;;26.90;7.03;;;;;;;-143.48;95.17;118439.88;5034897;28;20025;-73
2023/05/28 00:17:06;;;;;;;25.92;6.70;;;;;;;-143.48;94.27;118439.88;5017064;28;20366;-74
2023/05/28 00:19:32;;;;;;;26.00;7.25;;;;;;;-143.48;94.67;118439.88;5034710;28;20032;-74
2023/05/28 00:21:57;;;;;;;24.73;6.60;;;;;;;-143.48;93.99;118439.88;5016896;28;20021;-73
2023/05/28 00:24:22;;;;;;;22.85;6.50;;;;;;;-143.48;94.27;118439.88;5016914;28;20036;-73
2023/05/28 00:26:48;;;;;;;29.58;6.75;;;;;;;-143.48;93.76;118439.88;5034823;28;20233;-73
2023/05/28 00:29:13;;;;;;;19.38;6.50;;;;;;;-143.48;93.27;118439.88;5016905;28;20496;-73
2023/05/28 00:31:39;;;;;;;25.95;7.47;;;;;;;-143.48;93.45;118439.88;5034522;28;20022;-73
2023/05/28 00:34:04;;;;;;;20.10;6.75;;;;;;;-143.48;94.51;118439.88;5034616;28;20538;-73
2023/05/28 00:36:30;;;;;;;19.95;6.20;;;;;;;-143.48;94.98;118439.88;5016730;28;20468;-73
2023/05/28 00:38:55;;;;;;;25.75;6.93;;;;;;;-143.48;94.64;118439.88;5034517;28;20392;-73
2023/05/28 00:41:22;;;;;;;23.10;6.97;;;;;;;-143.48;94.46;118439.88;5034291;28;20040;-73
2023/05/28 00:43:51;;;;;;;21.42;6.38;;;;;;;-143.48;94.59;118439.88;5034274;28;20037;-73
2023/05/28 00:46:21;;;;;;;26.73;7.03;;;;;;;-143.48;93.97;118439.88;5034317;28;20037;-72
2023/05/28 00:48:47;;;;;;;24.50;6.78;;;;;;;-143.48;94.59;118439.88;5034219;28;20021;-73
2023/05/28 00:51:14;;;;;;;23.40;7.07;;;;;;;-143.48;94.23;118439.88;5034158;28;20032;-73
2023/05/28 00:53:41;;;;;;;21.65;6.68;;;;;;;-143.48;94.18;118439.88;5016324;28;20036;-73
2023/05/28 00:56:09;;;;;;;24.75;6.80;;;;;;;-143.48;95.25;118439.88;5034085;28;20073;-73
2023/05/28 00:58:39;;;;;;;23.40;6.72;;;;;;;-143.48;95.59;118439.88;5034078;28;20028;-73
2023/05/28 01:01:09;;;;;;;29.00;7.90;;;;;;;-143.48;95.65;118439.88;5016079;28;20124;-73
2023/05/28 01:03:38;;;;;;;27.13;6.90;;;;;;;-143.48;94.69;118439.88;5016558;28;20047;-73
2023/05/28 01:06:06;;;;;;;26.35;6.65;;;;;;;-143.48;93.72;118439.88;5033981;28;20022;-73
2023/05/28 01:08:32;;;;;;;25.98;7.68;;;;;;;-143.48;94.55;118439.88;5033974;28;20112;-73
2023/05/28 01:10:58;;;;;;;25.38;6.82;;;;;;;-143.48;94.44;118439.88;5033925;28;20384;-73
2023/05/28 01:13:23;;;;;;;18.23;6.72;;;;;;;-143.48;94.69;118439.88;5033868;28;20489;-73
2023/05/28 01:15:49;;;;;;;28.13;7.07;;;;;;;-143.48;94.99;118439.88;5015967;28;20056;-73
2023/05/28 01:18:14;;;;;;;19.10;6.07;;;;;;;-143.48;94.69;118439.88;5033713;28;20515;-73
2023/05/28 01:20:40;;;;;;;27.85;7.28;;;;;;;-143.48;95.59;118439.88;5015896;28;20340;-73
2023/05/28 01:23:10;;;;;;;22.65;6.63;;;;;;;-143.48;95.05;118439.88;5033572;28;20031;-73
2023/05/28 01:25:37;;;;;;;25.38;6.78;;;;;;;-143.48;95.07;118439.88;5015834;28;20095;-73
2023/05/28 01:28:12;;;;;;;21.75;6.72;;;;;;;-143.48;94.69;118439.88;5033530;28;20021;-73
2023/05/28 01:30:37;;;;;;;26.52;7.22;;;;;;;-143.48;94.10;118439.88;5015775;28;20026;-73
2023/05/28 01:33:03;;;;;;;24.30;6.72;;;;;;;-143.48;93.65;118439.88;5033474;28;20087;-73
2023/05/28 01:35:28;;;;;;;26.10;7.15;;;;;;;-143.48;94.25;118439.88;5033439;28;20095;-73
2023/05/28 01:37:57;;;;;;;22.90;7.03;;;;;;;-143.48;93.89;118439.88;5033317;28;20546;-73
2023/05/28 01:40:24;;;;;;;25.65;6.90;;;;;;;-143.48;94.49;118439.88;5015590;28;20017;-73
2023/05/28 01:42:51;;;;;;;24.08;6.55;;;;;;;-143.48;94.03;118439.88;5033388;28;20040;-73
2023/05/28 01:45:17;;;;;;;23.05;6.80;;;;;;;-143.48;93.80;118439.88;5033339;28;20370;-74
2023/05/28 01:47:43;;;;;;;19.60;6.75;;;;;;;-143.48;93.46;118439.88;5015486;28;20053;-74
2023/05/28 01:50:09;;;;;;;20.88;7.43;;;;;;;-143.48;93.51;118439.88;5033426;28;20045;-74
2023/05/28 01:52:34;;;;;;;26.33;7.22;;;;;;;-143.48;93.90;118439.88;5015454;28;20049;-74
2023/05/28 01:55:00;;;;;;;21.60;6.13;;;;;;;-143.48;93.93;118439.88;5015417;28;20043;-74
2023/05/28 01:57:25;;;;;;;27.73;7.15;;;;;;;-143.48;94.84;118439.88;5033117;28;20030;-74
2023/05/28 01:59:50;;;;;;;23.33;6.53;;;;;;;-143.48;94.47;118439.88;5032808;28;20052;-74
2023/05/28 02:02:16;;;;;;;28.42;7.53;;;;;;;-143.48;93.74;118439.88;5032753;28;20026;-74
2023/05/28 02:04:41;;;;;;;23.90;7.97;;;;;;;-143.48;93.51;118439.88;5015455;28;20159;-74
2023/05/28 02:07:07;;;;;;;23.65;6.97;;;;;;;-143.48;93.50;118439.88;5033060;28;20037;-74
2023/05/28 02:09:32;;;;;;;22.83;7.03;;;;;;;-143.48;93.86;118439.88;5032998;28;20028;-74
2023/05/28 02:12:02;;;;;;;23.05;7.25;;;;;;;-143.48;95.37;118439.88;5033026;28;20404;-74
2023/05/28 02:14:28;;;;;;;25.90;7.53;;;;;;;-143.48;94.99;118439.88;5015286;28;20021;-74
2023/05/28 02:16:53;;;;;;;28.83;7.50;;;;;;;-143.48;94.33;118439.88;5033011;28;20018;-74
2023/05/28 02:19:19;;;;;;;26.77;7.05;;;;;;;-143.48;94.11;118439.88;5032905;28;20056;-74
2023/05/28 02:21:45;;;;;;;22.95;7.78;;;;;;;-143.48;94.56;118439.88;5032721;28;20022;-74
2023/05/28 02:24:10;;;;;;;21.00;7.82;;;;;;;-143.48;94.48;118439.88;5032885;28;20060;-74
2023/05/28 02:26:36;;;;;;;20.70;6.88;;;;;;;-143.48;94.75;118439.88;5015182;28;20049;-74
2023/05/28 02:29:02;;;;;;;25.30;6.93;;;;;;;-143.48;95.05;118439.88;5032847;28;20036;-74
2023/05/28 02:31:28;;;;;;;22.55;7.63;;;;;;;-143.48;95.33;118439.88;5015011;28;20026;-74
2023/05/28 02:33:53;;;;;;;23.35;6.88;;;;;;;-143.48;94.87;118439.88;5032755;28;20382;-74
2023/05/28 02:36:18;;;;;;;24.63;6.65;;;;;;;-143.48;94.20;118439.88;5032698;28;20057;-74
2023/05/28 02:38:44;;;;;;;25.85;7.68;;;;;;;-143.48;94.03;118439.88;5015032;28;20477;-74
2023/05/28 02:41:10;;;;;;;22.60;6.70;;;;;;;-143.48;94.21;118439.88;5032701;28;20031;-74
2023/05/28 02:43:36;;;;;;;27.00;7.53;;;;;;;-143.48;94.78;118439.88;5032618;28;20032;-74
2023/05/28 02:46:01;;;;;;;26.85;7.20;;;;;;;-143.48;94.79;118439.88;5032740;28;20535;-74
2023/05/28 02:48:26;;;;;;;16.40;6.90;;;;;;;-143.48;95.12;118439.88;5014954;28;20362;-74
2023/05/28 02:50:52;;;;;;;19.23;7.32;;;;;;;-143.48;94.72;118439.88;5032702;28;20033;-73
2023/05/28 02:53:22;;;;;;;22.60;6.95;;;;;;;-143.48;95.19;118439.88;5014748;28;20017;-74
2023/05/28 02:55:48;;;;;;;27.30;7.18;;;;;;;-143.48;95.36;118439.88;5032494;28;20492;-73
2023/05/28 02:58:14;;;;;;;21.92;6.90;;;;;;;-143.48;95.07;118439.88;5032487;28;20029;-73
2023/05/28 03:00:41;;;;;;;20.00;7.00;;;;;;;-143.48;94.59;118439.88;5014592;28;20409;-73
2023/05/28 03:03:06;;;;;;;25.83;7.65;;;;;;;-143.48;94.89;118439.88;5014852;28;20438;-74
2023/05/28 03:05:32;;;;;;;21.60;7.07;;;;;;;-143.48;95.01;118439.88;5032522;28;20025;-74
2023/05/28 03:07:58;;;;;;;26.88;7.47;;;;;;;-143.48;95.16;118439.88;5032556;28;20053;-74
2023/05/28 03:10:23;;;;;;;27.17;7.32;;;;;;;-143.48;95.36;118439.88;5032407;28;20021;-74
2023/05/28 03:12:49;;;;;;;23.67;7.07;;;;;;;-143.48;95.41;118439.88;5032730;28;20029;-74
2023/05/28 03:15:14;;;;;;;26.23;7.28;;;;;;;-143.48;94.15;118439.88;5035947;28;20032;-74
2023/05/28 03:17:40;;;;;;;24.50;7.28;;;;;;;-143.48;94.72;118439.88;5036002;28;20534;-74
2023/05/28 03:20:09;;;;;;;27.58;7.40;;;;;;;-143.48;94.47;118439.88;5018167;28;20493;-74
2023/05/28 03:22:35;;;;;;;22.63;7.18;;;;;;;-143.48;94.75;118439.88;5018147;28;20048;-74
2023/05/28 03:25:01;;;;;;;20.90;7.07;;;;;;;-143.48;95.11;118439.88;5001796;28;20391;-74
2023/05/28 03:27:26;;;;;;;24.50;6.88;;;;;;;-143.48;94.97;118439.88;5034968;28;20039;-74
2023/05/28 03:29:52;;;;;;;28.40;7.38;;;;;;;-143.48;94.53;118439.88;5017888;28;20021;-74
2023/05/28 03:32:17;;;;;;;24.00;7.60;;;;;;;-143.48;94.32;118439.88;5035707;28;20075;-74
2023/05/28 03:34:42;;;;;;;18.13;6.57;;;;;;;-143.48;93.87;118439.88;5017866;28;20025;-74
2023/05/28 03:37:08;;;;;;;23.48;6.97;;;;;;;-143.48;93.93;118439.88;5035517;28;20532;-74
2023/05/28 03:39:33;;;;;;;26.65;6.85;;;;;;;-143.48;94.67;118439.88;5035574;28;20025;-73
2023/05/28 03:41:58;;;;;;;26.02;7.20;;;;;;;-143.48;95.46;118439.88;5017714;28;20496;-73
2023/05/28 03:44:23;;;;;;;21.20;7.28;;;;;;;-143.48;95.64;118439.88;5035508;28;20029;-74
2023/05/28 03:46:50;;;;;;;28.27;7.40;;;;;;;-143.48;94.79;118439.88;5017911;28;20139;-74
2023/05/28 03:49:15;;;;;;;24.50;6.85;;;;;;;-143.48;94.90;118439.88;5017631;28;20099;-74
2023/05/28 03:51:40;;;;;;;18.02;6.85;;;;;;;-143.48;95.02;118439.88;5035403;28;20025;-74
2023/05/28 03:54:06;;;;;;;25.75;7.00;;;;;;;-143.48;95.59;118439.88;5017486;28;20494;-74
2023/05/28 03:56:33;;;;;;;19.33;6.88;;;;;;;-143.48;94.98;118439.88;5035191;28;20021;-74
2023/05/28 03:58:58;;;;;;;20.85;7.03;;;;;;;-143.48;95.05;118439.88;5017392;28;20022;-74
2023/05/28 04:01:24;;;;;;;22.52;6.78;;;;;;;-143.48;94.00;118439.88;5035059;28;20405;-74
2023/05/28 04:03:49;;;;;;;17.83;7.28;;;;;;;-143.48;94.67;118439.88;5017932;28;20017;-74
2023/05/28 04:06:14;;;;;;;23.88;7.03;;;;;;;-143.48;93.76;118439.88;5017524;28;20021;-73
2023/05/28 04:08:40;;;;;;;25.10;7.13;;;;;;;-143.48;93.71;118439.88;5035185;28;20428;-74
2023/05/28 04:11:05;;;;;;;26.17;6.90;;;;;;;-143.48;93.25;118439.88;5035108;28;20505;-74
2023/05/28 04:13:30;;;;;;;19.10;6.93;;;;;;;-143.48;92.83;118439.88;5017265;28;20507;-74
2023/05/28 04:15:56;;;;;;;19.55;7.05;;;;;;;-143.48;93.35;118439.88;5017206;28;20160;-74
2023/05/28 04:18:21;;;;;;;18.77;6.65;;;;;;;-143.48;92.94;118439.88;5035629;28;20500;-74
2023/05/28 04:20:47;;;;;;;22.45;6.63;;;;;;;-143.48;92.93;118439.88;5017177;28;20116;-73
2023/05/28 04:23:12;;;;;;;23.77;7.13;;;;;;;-143.48;93.01;118439.88;5017141;28;20033;-73
2023/05/28 04:25:37;;;;;;;19.42;6.78;;;;;;;-143.48;93.19;118439.88;5035057;28;20022;-73
2023/05/28 04:28:04;;;;;;;20.75;6.35;;;;;;;-143.48;92.50;118439.88;5034976;28;20025;-73
2023/05/28 04:30:29;;;;;;;19.75;6.68;;;;;;;-143.48;92.89;118439.88;5034828;28;20100;-73
2023/05/28 04:32:56;;;;;;;27.23;7.00;;;;;;;-143.48;92.50;118439.88;5017014;28;20053;-73
2023/05/28 04:35:22;;;;;;;25.23;6.75;;;;;;;-143.48;93.20;118439.88;5034623;28;20096;-73
2023/05/28 04:37:50;;;;;;;24.65;6.70;;;;;;;-143.48;93.64;118439.88;5016757;28;20051;-73
2023/05/28 04:40:16;;;;;;;22.33;7.47;;;;;;;-143.48;93.69;118439.88;5034868;28;20022;-73
2023/05/28 04:42:42;;;;;;;19.35;6.57;;;;;;;-143.48;95.64;118439.88;5016580;28;20036;-73
2023/05/28 04:45:09;;;;;;;27.05;7.43;;;;;;;-143.48;94.51;118439.88;5016524;28;20033;-73
2023/05/28 04:47:35;;;;;;;23.13;7.05;;;;;;;-143.48;93.66;118439.88;5034618;28;20037;-73
2023/05/28 04:50:04;;;;;;;21.58;7.20;;;;;;;-143.48;93.33;118439.88;5034771;28;20405;-73
2023/05/28 04:52:35;;;;;;;20.08;6.63;;;;;;;-143.48;92.79;118439.88;5036762;28;20072;-74
2023/05/28 04:55:01;;;;;;;20.92;7.10;;;;;;;-143.48;93.29;118439.88;5016417;28;20018;-73
2023/05/28 04:57:27;;;;;;;20.60;6.72;;;;;;;-143.48;92.26;118439.88;5034060;28;20470;-73
2023/05/28 04:59:52;;;;;;;19.60;7.50;;;;;;;-143.48;92.03;118439.88;5033984;28;20077;-73
2023/05/28 05:02:18;;;;;;;22.80;6.65;;;;;;;-143.48;91.63;118439.88;5016132;28;20449;-72
2023/05/28 05:04:46;;;;;;;22.13;7.15;;;;;;;-143.48;91.72;118439.88;5016075;28;20378;-73
2023/05/28 05:07:13;;;;;;;23.73;6.85;;;;;;;-143.48;90.71;118439.88;5016178;28;20022;-73
2023/05/28 05:09:39;;;;;;;15.88;6.65;;;;;;;-143.48;90.09;118439.88;5015898;28;20027;-73
2023/05/28 05:12:05;;;;;;;29.58;7.40;;;;;;;-143.48;88.79;118439.88;5033022;28;20021;-73
2023/05/28 05:14:31;;;;;;;19.92;7.25;;;;;;;-143.48;89.26;118439.88;5016228;28;20037;-73
2023/05/28 05:16:56;;;;;;;20.85;7.13;;;;;;;-143.48;89.23;118439.88;5033739;28;20025;-73
2023/05/28 05:19:21;;;;;;;23.77;6.82;;;;;;;-143.48;88.69;118439.88;5015900;28;20017;-73
2023/05/28 05:21:46;;;;;;;18.77;6.20;;;;;;;-143.48;89.13;118439.88;5033398;28;20025;-73
2023/05/28 05:24:12;;;;;;;17.63;6.60;;;;;;;-143.48;88.70;118439.88;5016826;28;20412;-73
2023/05/28 05:26:37;;;;;;;24.60;6.90;;;;;;;-143.48;87.49;118439.88;5034775;28;20083;-73
2023/05/28 05:29:02;;;;;;;21.60;6.70;;;;;;;-143.48;87.27;118439.88;5015840;28;20393;-73
2023/05/28 05:31:28;;;;;;;20.85;6.60;;;;;;;-143.48;86.23;118439.88;5033099;28;20017;-73
2023/05/28 05:33:53;;;;;;;15.23;6.10;;;;;;;-143.48;86.74;118439.88;5014662;28;20146;-73
2023/05/28 05:36:18;;;;;;;23.83;6.90;;;;;;;-143.48;88.12;118439.88;5032603;28;20029;-72
2023/05/28 05:38:45;;;;;;;18.38;6.05;;;;;;;-143.48;86.27;118439.88;5016070;28;20809;-73
2023/05/28 05:41:11;;;;;;;23.45;7.30;;;;;;;-143.48;84.10;118439.88;5015456;28;20112;-73
2023/05/28 05:43:36;;;;;;;18.02;6.20;;;;;;;-143.48;83.35;118439.88;5033206;28;20064;-73
2023/05/28 05:46:02;;;;;;;19.60;6.15;;;;;;;-143.48;72.33;118439.88;5033107;28;20031;-72
2023/05/28 05:48:27;;;;;;;20.13;6.60;;;;;;;-143.48;63.48;118439.88;5033193;28;20520;-74
2023/05/28 05:50:58;;;;;;;19.77;6.18;;;;;;;-143.48;61.98;118439.88;5032048;28;20074;-73
2023/05/28 05:53:24;;;;;;;19.38;6.18;;;;;;;-143.48;59.01;118439.88;5032983;28;20017;-73
2023/05/28 05:55:50;;;;;;;19.42;6.00;;;;;;;-143.48;56.72;118439.88;5015210;28;20487;-74
2023/05/28 05:58:15;;;;;;;21.83;6.55;;;;;;;-143.48;57.32;118439.88;5015223;28;20144;-74
2023/05/28 06:00:42;;;;;;;18.48;5.55;;;;;;;-143.48;55.99;118439.88;5014868;28;20051;-73
2023/05/28 06:03:07;;;;;;;24.98;6.35;;;;;;;-143.48;54.81;118439.88;5032848;28;20029;-74
2023/05/28 06:05:33;;;;;;;15.85;5.43;;;;;;;-143.48;51.00;118439.88;5015466;28;20028;-73
2023/05/28 06:07:59;;;;;;;19.65;6.30;;;;;;;-143.48;53.15;118439.88;5033096;28;20195;-73
2023/05/28 06:10:24;;;;;;;17.50;5.57;;;;;;;-143.48;55.01;118439.88;5015289;28;20106;-74
2023/05/28 06:12:49;;;;;;;19.48;6.00;;;;;;;-143.48;61.12;118439.88;5032846;28;20065;-73
2023/05/28 06:15:15;;;;;;;17.65;6.20;;;;;;;-143.48;55.42;118439.88;5032895;28;20553;-73
2023/05/28 06:17:41;;;;;;;18.38;5.90;;;;;;;-143.48;52.45;118439.88;5015180;28;20021;-73
2023/05/28 06:20:08;;;;;;;17.83;5.63;;;;;;;-143.48;50.41;118439.88;5015118;28;20026;-73
2023/05/28 06:22:33;;;;;;;19.67;5.93;;;;;;;-143.48;50.39;118439.88;5014821;28;20030;-73
2023/05/28 06:25:00;;;;;;;16.63;5.43;;;;;;;-143.48;52.16;118439.88;5032714;28;20031;-73
2023/05/28 06:27:26;;;;;;;14.88;5.70;;;;;;;-143.48;49.34;118439.88;5032886;28;20083;-73
2023/05/28 06:29:51;;;;;;;15.55;5.40;;;;;;;-143.48;49.05;118439.88;5032769;28;20025;-73
2023/05/28 06:32:16;;;;;;;18.13;5.65;;;;;;;-143.48;47.11;118439.88;5032621;28;20017;-73
2023/05/28 06:34:42;;;;;;;18.63;5.65;;;;;;;-143.48;48.25;118439.88;5032546;28;20060;-73
2023/05/28 06:37:07;;;;;;;14.48;5.43;;;;;;;-143.48;48.50;118439.88;5014910;28;20120;-73
2023/05/28 06:39:33;;;;;;;17.42;5.50;;;;;;;-143.48;49.79;118439.88;5032545;28;20035;-73
2023/05/28 06:41:58;;;;;;;18.95;5.50;;;;;;;-143.48;46.87;118439.88;5033224;28;20037;-73
2023/05/28 06:44:23;;;;;;;17.95;5.53;;;;;;;-143.48;46.54;118439.88;5015375;28;20435;-73
2023/05/28 06:46:49;;;;;;;17.65;5.75;;;;;;;-143.48;48.60;118439.88;5034391;28;20026;-73
2023/05/28 06:49:14;;;;;;;18.20;5.75;;;;;;;-143.48;48.36;118439.88;5036415;28;20036;-73
2023/05/28 06:51:39;;;;;;;19.80;6.20;;;;;;;-143.48;50.46;118439.88;5036462;28;20049;-73
2023/05/28 06:54:05;;;;;;;16.45;5.68;;;;;;;-143.48;50.66;118439.88;5018755;28;20116;-73
2023/05/28 06:56:30;;;;;;;17.60;5.68;;;;;;;-143.48;49.66;118439.88;5018367;28;20472;-73
2023/05/28 06:58:55;;;;;;;18.33;5.80;;;;;;;-143.48;51.55;118439.88;5036464;28;20025;-73
2023/05/28 07:01:20;;;;;;;16.40;6.00;;;;;;;-143.48;52.15;118439.88;5036369;28;20042;-73
2023/05/28 07:03:46;;;;;;;17.05;5.50;;;;;;;-143.48;53.02;118439.88;5019091;28;20025;-74
2023/05/28 07:06:12;;;;;;;17.02;5.50;;;;;;;-143.48;51.45;118439.88;5036703;28;20053;-74
2023/05/28 07:08:40;;;;;;;20.90;5.28;;;;;;;-143.48;52.28;118439.88;5019072;28;20027;-74
2023/05/28 07:11:07;;;;;;;17.48;5.60;;;;;;;-143.48;51.77;118439.88;5036141;28;20071;-74
2023/05/28 07:13:33;;;;;;;15.77;5.38;;;;;;;-143.48;55.12;118439.88;5018376;28;20025;-74
2023/05/28 07:15:58;;;;;;;18.00;5.68;;;;;;;-143.48;52.97;118439.88;5036238;28;20063;-75
2023/05/28 07:18:24;;;;;;;20.60;5.57;;;;;;;-143.48;52.17;118439.88;5035872;28;20033;-74
2023/05/28 07:20:50;;;;;;;17.38;5.72;;;;;;;-143.48;55.14;118439.88;5035851;28;20083;-73
2023/05/28 07:23:15;;;;;;;15.13;5.25;;;;;;;-143.48;55.46;118439.88;5018326;28;20036;-74
2023/05/28 07:25:42;;;;;;;17.42;5.78;;;;;;;-143.48;55.95;118439.88;5035825;28;20469;-74
2023/05/28 07:28:07;;;;;;;17.35;5.82;;;;;;;-143.48;54.24;118439.88;5018028;28;20037;-74
2023/05/28 07:30:33;;;;;;;18.75;6.20;;;;;;;-143.48;51.43;118439.88;5017949;28;20553;-74
2023/05/28 07:32:58;;;;;;;17.85;5.65;;;;;;;-143.48;51.31;118439.88;5017999;28;20030;-73
2023/05/28 07:35:24;;;;;;;15.90;5.25;;;;;;;-143.48;49.63;118439.88;5035895;28;20060;-74
2023/05/28 07:37:49;;;;;;;16.70;5.78;;;;;;;-143.48;50.75;118439.88;5035867;28;20064;-76
2023/05/28 07:40:15;;;;;;;15.25;5.80;;;;;;;-143.48;51.32;118439.88;5017803;28;20133;-74
2023/05/28 07:42:41;;;;;;;14.30;5.30;;;;;;;-143.48;49.20;118439.88;5017763;28;20433;-74
2023/05/28 07:45:07;;;;;;;16.33;5.60;;;;;;;-143.48;48.66;118439.88;5017769;28;20029;-74
2023/05/28 07:47:32;;;;;;;16.73;5.68;;;;;;;-143.48;49.12;118439.88;5017584;28;20021;-74
2023/05/28 07:49:57;;;;;;;16.15;5.40;;;;;;;-143.48;47.08;118439.88;5017795;28;20029;-74
2023/05/28 07:52:23;;;;;;;19.52;5.55;;;;;;;-143.48;46.54;118439.88;5035434;28;20040;-74
2023/05/28 07:54:49;;;;;;;16.55;5.53;;;;;;;-143.48;49.63;118439.88;5035366;28;20021;-75
2023/05/28 07:57:14;;;;;;;16.85;5.28;;;;;;;-143.48;48.80;118439.88;5035716;28;20032;-75
2023/05/28 07:59:40;;;;;;;13.18;5.05;;;;;;;-143.48;48.92;118439.88;5034129;28;20552;-74
2023/05/28 08:02:05;;;;;;;16.63;5.68;;;;;;;-143.48;48.67;118439.88;5035433;28;20026;-75
2023/05/28 08:04:31;;;;;;;13.52;5.05;;;;;;;-143.48;47.06;118439.88;5033403;28;20025;-74
2023/05/28 08:06:56;;;;;;;15.48;5.32;;;;;;;-143.48;48.08;118439.88;5033120;28;20025;-74
2023/05/28 08:09:23;;;;;;;21.17;5.80;;;;;;;-143.48;46.70;118439.88;5032969;28;20053;-74
2023/05/28 08:11:48;;;;;;;17.23;5.32;;;;;;;-143.48;45.54;118439.88;5032931;28;20054;-74
2023/05/28 08:14:13;;;;;;;12.10;5.13;;;;;;;-143.48;45.74;118439.88;5032939;28;20025;-74
2023/05/28 08:16:39;;;;;;;13.23;5.57;;;;;;;-143.48;45.90;118439.88;5032949;28;20035;-75
2023/05/28 08:19:04;;;;;;;16.27;5.20;;;;;;;-143.48;45.30;118439.88;5033906;28;20393;-75
2023/05/28 08:21:30;;;;;;;13.10;5.22;;;;;;;-143.48;45.05;118439.88;5034848;28;20086;-74
2023/05/28 08:23:55;;;;;;;19.25;5.20;;;;;;;-143.48;44.44;118439.88;5016965;28;20471;-74
2023/05/28 08:26:21;;;;;;;13.77;5.00;;;;;;;-143.48;45.32;118439.88;5017141;28;20075;-74
2023/05/28 08:28:46;;;;;;;15.23;5.03;;;;;;;-143.48;45.51;118439.88;5034765;28;20025;-74
2023/05/28 08:31:12;;;;;;;16.15;5.38;;;;;;;-143.48;45.97;118439.88;5016746;28;20040;-74
2023/05/28 08:33:37;;;;;;;18.52;5.55;;;;;;;-143.48;45.50;118439.88;5034603;28;20021;-73
2023/05/28 08:36:03;;;;;;;14.05;4.78;;;;;;;-143.48;45.59;118439.88;5034717;28;20068;-73
2023/05/28 08:38:29;;;;;;;13.77;5.22;;;;;;;-143.48;45.72;118439.88;5034515;28;20022;-74
2023/05/28 08:40:55;;;;;;;13.48;4.65;;;;;;;-143.48;45.06;118439.88;5034351;28;20060;-73
2023/05/28 08:43:21;;;;;;;14.90;5.35;;;;;;;-143.48;44.47;118439.88;5016888;28;20381;-73
2023/05/28 08:45:47;;;;;;;19.77;5.10;;;;;;;-143.48;44.88;118439.88;5016679;28;20025;-73
2023/05/28 08:48:14;;;;;;;15.82;5.22;;;;;;;-143.48;44.66;118439.88;5034400;28;20022;-74
2023/05/28 08:50:41;;;;;;;15.50;5.00;;;;;;;-143.48;44.73;118439.88;5034398;28;20383;-73
2023/05/28 08:53:15;;;;;;;16.52;5.00;;;;;;;-143.48;45.14;118439.88;5034448;28;20021;-73
2023/05/28 08:55:41;;;;;;;14.57;4.57;;;;;;;-143.48;44.49;118439.88;5034208;28;20480;-74
2023/05/28 08:58:07;;;;;;;14.25;4.80;;;;;;;-143.48;45.42;118439.88;5016507;28;20021;-74
2023/05/28 09:00:33;;;;;;;13.80;4.80;;;;;;;-143.48;43.72;118439.88;5033982;28;20061;-74
2023/05/28 09:02:58;;;;;;;16.98;4.85;;;;;;;-143.48;46.98;118439.88;5033916;28;20057;-74
2023/05/28 09:05:24;;;;;;;13.90;5.40;;;;;;;-143.48;45.62;118439.88;5016571;28;20060;-74
2023/05/28 09:07:49;;;;;;;14.93;5.32;;;;;;;-143.48;44.97;118439.88;5017036;28;20445;-74
2023/05/28 09:10:15;;;;;;;15.57;5.28;;;;;;;-143.48;45.27;118439.88;5015678;28;20116;-74
2023/05/28 09:12:57;;;;;;;20.10;5.25;;;;;;;-143.48;45.18;118439.88;5034134;28;20519;-73
2023/05/28 09:15:22;;;;;;;14.73;5.35;;;;;;;-143.48;44.38;118439.88;5033913;28;20030;-73
2023/05/28 09:17:47;;;;;;;15.73;5.45;;;;;;;-143.48;43.78;118439.88;5016081;28;20022;-74
2023/05/28 09:20:13;;;;;;;16.02;4.72;;;;;;;-143.48;43.08;118439.88;5016030;28;20021;-74
2023/05/28 09:22:40;;;;;;;21.52;5.85;;;;;;;-143.48;43.49;118439.88;5033921;28;20030;-77
2023/05/28 09:25:07;;;;;;;17.92;5.43;;;;;;;-143.48;42.89;118439.88;5015945;28;20017;-76
2023/05/28 09:27:32;;;;;;;15.05;4.97;;;;;;;-143.48;41.69;118439.88;5033620;28;20025;-76
2023/05/28 09:30:07;;;;;;;13.25;4.75;;;;;;;-143.48;41.69;118439.88;5033521;28;20030;-76
2023/05/28 09:32:34;;;;;;;12.93;4.88;;;;;;;-143.48;41.00;118439.88;5015741;28;20056;-76
2023/05/28 09:35:00;;;;;;;17.85;5.32;;;;;;;-143.48;42.14;118439.88;5015988;28;20032;-76
2023/05/28 09:37:29;;;;;;;22.33;5.57;;;;;;;-143.48;42.02;118439.88;5015776;28;20036;-75
2023/05/28 09:40:03;;;;;;;17.17;5.45;;;;;;;-143.48;40.24;118439.88;5015651;28;20389;-76
2023/05/28 09:42:42;;;;;;;16.50;5.10;;;;;;;-143.48;41.35;118439.88;5015641;28;20072;-76
2023/05/28 09:45:11;;;;;;;17.52;5.00;;;;;;;-143.48;40.43;118439.88;5033520;28;20029;-76
2023/05/28 09:47:44;;;;;;;17.65;5.00;;;;;;;-143.48;40.81;118439.88;5033516;28;20097;-76
2023/05/28 09:50:11;;;;;;;18.30;5.38;;;;;;;-143.48;41.78;118439.88;5015530;28;20025;-76
2023/05/28 09:52:39;;;;;;;14.40;4.13;;;;;;;-143.48;39.36;118439.88;5033178;28;20457;-76
2023/05/28 09:55:07;;;;;;;22.35;5.55;;;;;;;-143.48;39.64;118439.88;5015430;28;20477;-76
2023/05/28 09:57:33;;;;;;;16.92;4.95;;;;;;;-143.48;40.41;118439.88;4999462;28;20481;-76
2023/05/28 10:00:14;;;;;;;15.85;5.25;;;;;;;-143.48;39.41;118439.88;5037844;28;20092;-76
2023/05/28 10:03:10;;;;;;;14.85;5.20;;;;;;;-143.48;39.85;118439.88;5017204;28;20036;-74
2023/05/28 10:05:36;;;;;;;14.88;5.03;;;;;;;-143.48;41.63;118439.88;5014729;28;20124;-74
2023/05/28 10:08:05;;;;;;;13.40;5.25;;;;;;;-143.48;42.08;118439.88;5016296;28;20029;-75
2023/05/28 10:10:31;;;;;;;15.60;5.50;;;;;;;-143.48;41.87;118439.88;5015984;28;20036;-74
2023/05/28 10:12:57;;;;;;;15.52;5.78;;;;;;;-143.48;42.51;118439.88;5015727;28;20065;-75
2023/05/28 10:15:23;;;;;;;13.60;5.15;;;;;;;-143.48;41.96;118439.88;5013944;28;20057;-75
2023/05/28 10:17:50;;;;;;;15.55;5.78;;;;;;;-143.48;41.44;118439.88;5014245;28;20033;-75
2023/05/28 10:20:16;;;;;;;13.32;5.55;;;;;;;-143.48;42.46;118439.88;5033072;28;20370;-74
2023/05/28 10:22:42;;;;;;;16.15;5.60;;;;;;;-143.48;43.60;118439.88;5017773;28;20032;-74
2023/05/28 10:25:08;;;;;;;13.30;5.35;;;;;;;-143.48;42.73;118439.88;5019563;28;20033;-74
2023/05/28 10:27:42;;;;;;;17.08;5.18;;;;;;;-143.48;42.20;118439.88;5037016;28;20036;-75
2023/05/28 10:30:09;;;;;;;14.20;5.53;;;;;;;-143.48;44.21;118439.88;5019787;28;20519;-74
2023/05/28 10:32:41;;;;;;;12.10;5.40;;;;;;;-143.48;44.39;118439.88;5019351;28;20017;-74
2023/05/28 10:35:09;;;;;;;17.33;5.80;;;;;;;-143.48;44.53;118439.88;5036678;28;20044;-75
2023/05/28 10:37:35;;;;;;;15.05;5.30;;;;;;;-143.48;42.87;118439.88;5018951;28;20079;-74
2023/05/28 10:40:00;;;;;;;14.70;5.65;;;;;;;-143.48;44.36;118439.88;5018893;28;20065;-74
2023/05/28 10:42:25;;;;;;;14.18;5.55;;;;;;;-143.48;44.47;118439.88;5035548;28;20018;-74
2023/05/28 10:45:11;;;;;;;13.65;5.18;;;;;;;-143.48;43.65;118439.88;5017199;28;20125;-75
2023/05/28 10:47:42;;;;;;;15.38;5.63;;;;;;;-143.48;44.50;118439.88;5016985;28;20041;-75
2023/05/28 10:50:17;;;;;;;18.23;5.72;;;;;;;-143.48;44.15;118439.88;5017326;28;20033;-74
2023/05/28 10:53:02;;;;;;;14.55;5.47;;;;;;;-143.48;44.14;118439.88;5016928;28;20049;-74
2023/05/28 10:55:27;;;;;;;13.30;5.45;;;;;;;-143.48;44.45;118439.88;5016769;28;20353;-75
2023/05/28 10:58:04;;;;;;;15.63;5.97;;;;;;;-143.48;43.05;118439.88;5018156;28;20017;-74